Time;durP1;ratioP1;P1;durP2;ratioP2;P2;SDS_P1;SDS_P2;PMS_P1;PMS_P2;Temp;Humidity;BMP_temperature;BMP_pressure;BME280_temperature;BME280_humidity;BME280_pressure;Samples;Min_cycle;Max_cycle;Signal;HPM_P1;HPM_P2
2021/12/15 00:01:18;;;;;;;45.10;19.15;;;10.20;99.90;;;;;;5115462;28;20134;-67
2021/12/15 00:03:44;;;;;;;46.67;20.52;;;10.20;99.90;;;;;;5116056;28;20062;-68
2021/12/15 00:06:13;;;;;;;47.22;20.55;;;10.20;99.90;;;;;;5116246;28;20126;-68
2021/12/15 00:08:40;;;;;;;44.67;18.65;;;10.20;99.90;;;;;;5096564;28;20043;-68
2021/12/15 00:11:06;;;;;;;47.08;19.52;;;10.20;99.90;;;;;;5116038;28;20052;-68
2021/12/15 00:13:33;;;;;;;37.70;18.65;;;10.20;99.90;;;;;;5097007;28;20134;-68
2021/12/15 00:15:59;;;;;;;42.45;19.52;;;10.20;99.90;;;;;;5097536;28;20056;-68
2021/12/15 00:18:25;;;;;;;34.03;17.77;;;10.20;99.90;;;;;;5115101;28;20035;-68
2021/12/15 00:20:51;;;;;;;42.42;19.02;;;10.20;99.90;;;;;;5115127;28;20130;-68
2021/12/15 00:23:17;;;;;;;44.88;19.58;;;10.20;99.90;;;;;;5079642;28;20083;-68
2021/12/15 00:25:43;;;;;;;35.22;17.48;;;10.20;99.90;;;;;;5114889;28;20039;-68
2021/12/15 00:28:11;;;;;;;40.55;18.77;;;10.20;99.90;;;;;;5115476;28;20127;-68
2021/12/15 00:30:38;;;;;;;37.70;18.30;;;10.20;99.90;;;;;;5114938;28;20043;-68
2021/12/15 00:33:06;;;;;;;40.85;19.02;;;10.20;99.90;;;;;;5114868;28;20040;-68
2021/12/15 00:35:32;;;;;;;33.65;17.58;;;10.20;99.90;;;;;;5115358;28;20395;-68
2021/12/15 00:37:58;;;;;;;37.88;17.38;;;10.20;99.90;;;;;;5115595;28;20040;-68
2021/12/15 00:40:25;;;;;;;34.33;17.33;;;10.20;99.90;;;;;;5114756;28;20052;-68
2021/12/15 00:42:53;;;;;;;33.58;16.65;;;10.20;99.90;;;;;;5114727;28;20181;-68
2021/12/15 00:45:19;;;;;;;38.83;16.70;;;10.20;99.90;;;;;;5096451;28;20057;-68
2021/12/15 00:47:46;;;;;;;34.20;17.35;;;10.20;99.90;;;;;;5114633;28;20118;-69
2021/12/15 00:50:15;;;;;;;34.53;16.48;;;10.20;99.90;;;;;;5114600;28;20369;-69
2021/12/15 00:52:43;;;;;;;36.45;17.05;;;10.20;99.90;;;;;;5114763;28;20380;-69
2021/12/15 00:55:11;;;;;;;33.45;16.88;;;10.20;99.90;;;;;;5114423;28;20044;-69
2021/12/15 00:57:37;;;;;;;32.05;16.85;;;10.30;99.90;;;;;;5114371;28;20092;-68
2021/12/15 01:00:15;;;;;;;35.65;17.00;;;10.30;99.90;;;;;;5114500;28;20047;-69
2021/12/15 01:02:41;;;;;;;37.90;17.52;;;10.30;99.90;;;;;;5115245;28;20109;-69
2021/12/15 01:05:08;;;;;;;37.47;17.23;;;10.20;99.90;;;;;;5114336;28;20055;-69
2021/12/15 01:07:34;;;;;;;31.65;15.63;;;10.30;99.90;;;;;;5114551;28;20067;-69
2021/12/15 01:10:01;;;;;;;32.33;16.20;;;10.30;99.90;;;;;;5114094;28;20123;-68
2021/12/15 01:20:57;;;;;;;33.10;17.13;;;10.30;99.90;;;;;;5098809;28;20051;-68
2021/12/15 01:23:26;;;;;;;35.08;17.20;;;10.20;99.90;;;;;;5114120;28;20048;-69
2021/12/15 01:25:59;;;;;;;33.58;15.77;;;10.20;99.90;;;;;;5114089;28;20043;-68
2021/12/15 01:28:26;;;;;;;36.30;16.63;;;10.30;99.90;;;;;;5114895;28;20063;-69
2021/12/15 01:30:54;;;;;;;33.08;16.13;;;10.20;99.90;;;;;;5113981;28;20051;-68
2021/12/15 01:33:25;;;;;;;34.83;17.58;;;10.20;99.90;;;;;;5114009;28;20489;-68
2021/12/15 01:35:52;;;;;;;36.03;16.90;;;10.30;99.90;;;;;;5114245;28;20502;-68
2021/12/15 01:38:21;;;;;;;31.85;17.00;;;10.30;99.90;;;;;;5114437;28;20047;-68
2021/12/15 01:40:47;;;;;;;33.40;16.50;;;10.30;99.90;;;;;;5113978;28;20036;-68
2021/12/15 01:43:25;;;;;;;38.35;18.15;;;10.50;99.90;;;;;;5113997;28;20071;-68
2021/12/15 01:48:40;;;;;;;29.45;15.88;;;10.30;99.90;;;;;;5114745;28;20051;-68
2021/12/15 01:51:09;;;;;;;30.70;16.58;;;10.40;99.90;;;;;;5113876;28;20074;-68
2021/12/15 01:53:35;;;;;;;32.50;17.23;;;10.30;99.90;;;;;;5113837;28;20059;-68
2021/12/15 01:56:04;;;;;;;36.15;16.70;;;10.30;99.90;;;;;;5113697;28;20054;-68
2021/12/15 01:58:30;;;;;;;33.00;16.80;;;10.30;99.90;;;;;;5095981;28;20054;-68
2021/12/15 02:01:03;;;;;;;31.27;16.45;;;10.30;99.90;;;;;;5079249;28;20079;-68
2021/12/15 02:03:29;;;;;;;30.35;16.40;;;10.30;99.90;;;;;;5113843;28;20092;-68
2021/12/15 02:05:55;;;;;;;31.70;16.77;;;10.30;99.90;;;;;;5113730;28;20054;-69
2021/12/15 02:08:21;;;;;;;32.92;16.30;;;10.30;99.90;;;;;;5114196;28;20044;-69
2021/12/15 02:10:48;;;;;;;28.80;15.70;;;10.30;99.90;;;;;;5113248;28;20059;-68
2021/12/15 02:13:17;;;;;;;33.03;16.13;;;10.80;99.90;;;;;;5114134;28;20048;-68
2021/12/15 02:15:48;;;;;;;30.02;16.30;;;10.30;99.90;;;;;;5113953;28;20051;-68
2021/12/15 02:18:18;;;;;;;32.20;16.95;;;10.30;99.90;;;;;;5113408;28;20475;-69
2021/12/15 02:20:48;;;;;;;33.15;16.85;;;10.40;99.90;;;;;;5113589;28;20048;-69
2021/12/15 02:23:16;;;;;;;31.40;16.58;;;10.30;99.90;;;;;;5113567;28;20052;-69
2021/12/15 02:25:42;;;;;;;28.27;16.50;;;10.30;99.90;;;;;;5114050;28;20048;-68
2021/12/15 02:28:09;;;;;;;29.42;17.17;;;10.30;99.90;;;;;;5114072;28;20085;-68
2021/12/15 02:38:36;;;;;;;32.08;15.80;;;10.30;99.90;;;;;;5116866;28;20480;-68
2021/12/15 02:41:09;;;;;;;32.58;16.42;;;10.30;99.90;;;;;;5117072;28;20054;-69
2021/12/15 02:43:35;;;;;;;32.42;16.88;;;10.30;99.90;;;;;;5117374;28;20039;-69
2021/12/15 02:46:01;;;;;;;30.05;16.45;;;10.30;99.90;;;;;;5117817;28;20051;-68
2021/12/15 02:48:27;;;;;;;28.20;16.95;;;10.30;99.90;;;;;;5099283;28;20079;-68
2021/12/15 02:50:53;;;;;;;32.95;16.38;;;10.30;99.90;;;;;;5117785;28;20079;-68
2021/12/15 02:53:20;;;;;;;33.92;15.82;;;10.30;99.90;;;;;;5117358;28;20452;-68
2021/12/15 02:55:45;;;;;;;30.50;16.25;;;10.40;99.90;;;;;;5116741;28;20083;-68
2021/12/15 02:58:11;;;;;;;32.92;16.98;;;10.30;99.90;;;;;;5116717;28;20079;-68
2021/12/15 03:01:17;;;;;;;31.25;16.67;;;10.30;99.90;;;;;;5117558;28;20043;-68
2021/12/15 03:06:23;;;;;;;32.30;17.10;;;10.40;99.90;;;;;;5117465;28;20177;-68
2021/12/15 03:15:19;;;;;;;28.65;15.77;;;10.30;99.90;;;;;;5117161;28;20036;-68
2021/12/15 03:17:07;;;;;;;30.73;15.68;;;10.30;99.90;;;;;;5116984;28;20051;-68
2021/12/15 03:19:34;;;;;;;35.22;17.08;;;10.30;99.90;;;;;;5098366;28;20071;-68
2021/12/15 03:22:00;;;;;;;32.20;17.60;;;10.40;99.90;;;;;;5098359;28;20446;-68
2021/12/15 03:24:27;;;;;;;34.47;17.88;;;10.40;99.90;;;;;;5116283;28;20044;-68
2021/12/15 03:27:09;;;;;;;37.63;18.33;;;10.30;99.90;;;;;;5116093;28;20052;-68
2021/12/15 03:37:39;;;;;;;36.35;17.00;;;10.40;99.90;;;;;;5116043;28;20149;-68
2021/12/15 03:40:20;;;;;;;30.75;17.63;;;10.40;99.90;;;;;;5097792;28;20044;-68
2021/12/15 03:42:58;;;;;;;35.25;18.13;;;10.40;99.90;;;;;;5115638;28;20052;-68
2021/12/15 03:45:38;;;;;;;32.90;18.15;;;10.30;99.90;;;;;;5115308;28;20078;-68
2021/12/15 03:48:07;;;;;;;38.97;18.23;;;10.40;99.90;;;;;;5116402;28;20127;-68
2021/12/15 03:50:35;;;;;;;34.92;18.00;;;10.40;99.90;;;;;;5115710;28;20479;-68
2021/12/15 03:53:02;;;;;;;37.83;18.52;;;10.40;99.90;;;;;;5115668;28;20047;-68
2021/12/15 03:55:30;;;;;;;33.47;18.90;;;10.40;99.90;;;;;;5115632;28;20535;-68
2021/12/15 03:57:59;;;;;;;36.95;19.35;;;10.70;99.90;;;;;;5115825;28;20118;-68
2021/12/15 04:00:27;;;;;;;33.13;17.85;;;10.40;99.90;;;;;;5097616;28;20097;-68
2021/12/15 04:02:53;;;;;;;35.90;18.77;;;10.40;99.90;;;;;;5115465;28;20048;-68
2021/12/15 04:05:20;;;;;;;34.53;19.85;;;10.40;99.90;;;;;;5115454;28;20112;-68
2021/12/15 04:07:48;;;;;;;36.38;19.60;;;10.40;99.90;;;;;;5116217;28;20051;-68
2021/12/15 04:10:19;;;;;;;34.72;18.42;;;10.40;99.90;;;;;;5115057;28;20122;-69
2021/12/15 04:12:45;;;;;;;41.22;19.45;;;10.40;99.90;;;;;;5097355;28;20116;-68
2021/12/15 04:15:26;;;;;;;37.67;19.60;;;10.40;99.90;;;;;;5097887;28;20116;-68
2021/12/15 04:18:01;;;;;;;40.00;19.98;;;10.40;99.90;;;;;;5099104;28;20039;-69
2021/12/15 04:20:34;;;;;;;40.47;20.92;;;10.40;99.90;;;;;;5115641;28;20043;-68
2021/12/15 04:23:01;;;;;;;40.88;19.73;;;10.40;99.90;;;;;;5115797;28;20047;-68
2021/12/15 04:25:33;;;;;;;37.75;19.58;;;10.40;99.90;;;;;;5115765;28;20043;-68
2021/12/15 04:28:04;;;;;;;37.70;19.67;;;10.40;99.90;;;;;;5115042;28;20035;-68
2021/12/15 04:30:33;;;;;;;35.90;19.25;;;10.40;99.90;;;;;;5115570;28;20126;-68
2021/12/15 04:33:07;;;;;;;33.85;18.25;;;10.40;99.90;;;;;;5114868;28;20055;-68
2021/12/15 04:35:34;;;;;;;38.83;19.38;;;10.40;99.90;;;;;;5114964;28;20139;-68
2021/12/15 04:38:01;;;;;;;36.55;19.60;;;10.40;99.90;;;;;;5096766;28;20051;-69
2021/12/15 04:40:27;;;;;;;33.60;18.05;;;10.40;99.90;;;;;;5114869;28;20051;-69
2021/12/15 04:42:54;;;;;;;36.83;18.50;;;10.40;99.90;;;;;;5114846;28;20051;-69
2021/12/15 04:45:21;;;;;;;38.15;19.25;;;10.30;99.90;;;;;;5097020;28;20048;-69
2021/12/15 04:47:51;;;;;;;40.40;20.33;;;10.40;99.90;;;;;;5114920;28;20048;-69
2021/12/15 04:50:19;;;;;;;43.75;19.10;;;10.40;99.90;;;;;;5115383;28;20367;-68
2021/12/15 04:52:45;;;;;;;37.15;18.23;;;10.40;99.90;;;;;;5114525;28;20543;-69
2021/12/15 04:55:11;;;;;;;41.85;20.42;;;10.40;99.90;;;;;;5114810;28;20058;-68
2021/12/15 04:57:37;;;;;;;40.83;19.23;;;10.40;99.90;;;;;;5114321;28;20044;-68
2021/12/15 05:00:07;;;;;;;36.05;18.45;;;10.40;99.90;;;;;;5097385;28;20046;-69
2021/12/15 05:02:33;;;;;;;37.88;18.48;;;10.40;99.90;;;;;;5080377;28;20360;-68
2021/12/15 05:04:59;;;;;;;41.75;18.98;;;10.40;99.90;;;;;;5114154;28;20051;-69
2021/12/15 05:07:24;;;;;;;37.63;19.05;;;10.30;99.90;;;;;;5114348;28;20160;-69
2021/12/15 05:09:51;;;;;;;42.97;19.85;;;10.30;99.90;;;;;;5114404;28;20134;-69
2021/12/15 05:12:22;;;;;;;39.65;19.77;;;10.30;99.90;;;;;;5096432;28;20433;-69
2021/12/15 05:14:49;;;;;;;39.38;18.80;;;10.30;99.90;;;;;;5114276;28;20043;-68
2021/12/15 05:17:15;;;;;;;41.67;19.33;;;10.30;99.90;;;;;;5096224;28;20537;-68
2021/12/15 05:19:43;;;;;;;39.78;19.92;;;10.30;99.90;;;;;;5114210;28;20491;-69
2021/12/15 05:22:09;;;;;;;40.65;20.63;;;10.30;99.90;;;;;;5114216;28;20090;-69
2021/12/15 05:24:35;;;;;;;36.25;18.90;;;10.30;99.90;;;;;;5114676;28;20463;-69
2021/12/15 05:27:05;;;;;;;36.45;19.30;;;10.30;99.90;;;;;;5079247;28;20139;-69
2021/12/15 05:29:32;;;;;;;37.53;18.95;;;10.30;99.90;;;;;;5114027;28;20491;-70
2021/12/15 05:31:58;;;;;;;36.50;18.17;;;10.30;99.90;;;;;;5114017;28;20043;-69
2021/12/15 05:34:25;;;;;;;38.75;19.35;;;10.40;99.90;;;;;;5114818;28;20075;-69
2021/12/15 05:36:52;;;;;;;38.33;18.63;;;10.30;99.90;;;;;;5114078;28;20051;-69
2021/12/15 05:39:19;;;;;;;40.60;20.33;;;10.30;99.90;;;;;;5113914;28;20044;-69
2021/12/15 05:41:45;;;;;;;40.55;21.08;;;10.30;99.90;;;;;;5114003;28;20082;-69
2021/12/15 05:44:11;;;;;;;38.33;19.45;;;10.30;99.90;;;;;;5114031;28;20055;-69
2021/12/15 05:46:37;;;;;;;40.30;20.67;;;10.40;99.90;;;;;;5113991;28;20047;-69
2021/12/15 05:49:04;;;;;;;41.00;19.67;;;10.30;99.90;;;;;;5113908;28;20467;-69
2021/12/15 05:51:30;;;;;;;41.10;18.75;;;10.40;99.90;;;;;;5113916;28;20051;-69
2021/12/15 05:53:56;;;;;;;37.97;19.13;;;10.40;99.90;;;;;;5095916;28;20054;-69
2021/12/15 05:56:22;;;;;;;37.78;19.65;;;10.30;99.90;;;;;;5113851;28;20048;-69
2021/12/15 05:58:48;;;;;;;39.22;19.83;;;10.60;99.90;;;;;;5113466;28;20043;-69
2021/12/15 06:01:14;;;;;;;41.38;19.52;;;10.30;99.90;;;;;;5113780;28;20048;-69
2021/12/15 06:03:40;;;;;;;39.65;18.50;;;10.40;99.90;;;;;;5113755;28;20487;-69
2021/12/15 06:06:06;;;;;;;40.80;20.88;;;10.30;99.90;;;;;;5096308;28;20047;-69
2021/12/15 06:08:32;;;;;;;36.47;18.90;;;10.40;99.90;;;;;;5117355;28;20050;-69
2021/12/15 06:10:58;;;;;;;38.65;20.10;;;10.30;99.90;;;;;;5099362;28;20062;-69
2021/12/15 06:13:26;;;;;;;37.53;19.98;;;10.30;99.90;;;;;;5117667;28;20107;-69
2021/12/15 06:15:53;;;;;;;42.47;20.33;;;10.50;99.90;;;;;;5117611;28;20044;-69
2021/12/15 06:18:20;;;;;;;36.13;20.17;;;10.30;99.90;;;;;;5117541;28;20031;-69
2021/12/15 06:20:48;;;;;;;38.40;19.10;;;10.30;99.90;;;;;;5099550;28;20459;-69
2021/12/15 06:23:19;;;;;;;40.20;20.75;;;10.30;99.90;;;;;;5099549;28;20132;-69
2021/12/15 06:25:48;;;;;;;43.38;19.92;;;10.30;99.90;;;;;;5117114;28;20459;-69
2021/12/15 06:28:15;;;;;;;39.08;20.73;;;10.30;99.90;;;;;;5118146;28;20119;-69
2021/12/15 06:30:42;;;;;;;36.22;19.25;;;10.30;99.90;;;;;;5117361;28;20108;-68
2021/12/15 06:33:08;;;;;;;38.85;19.88;;;10.30;99.90;;;;;;5116952;28;20565;-69
2021/12/15 06:35:35;;;;;;;38.63;19.17;;;10.50;99.90;;;;;;5117761;28;20176;-69
2021/12/15 06:38:02;;;;;;;36.58;19.85;;;10.30;99.90;;;;;;5098821;28;20044;-69
2021/12/15 06:40:28;;;;;;;36.45;20.38;;;10.30;99.90;;;;;;5117137;28;20047;-69
2021/12/15 06:42:54;;;;;;;39.72;20.73;;;10.40;99.90;;;;;;5117110;28;20492;-70
2021/12/15 06:45:24;;;;;;;36.88;20.42;;;10.80;99.90;;;;;;5099259;28;20047;-69
2021/12/15 06:58:47;;;;;;;37.67;19.23;;;10.30;99.90;;;;;;5116722;28;20130;-69
2021/12/15 07:01:13;;;;;;;37.78;21.00;;;10.30;99.90;;;;;;5116689;28;20157;-69
2021/12/15 07:03:39;;;;;;;41.10;20.60;;;10.30;99.90;;;;;;5116721;28;20476;-68
2021/12/15 07:06:05;;;;;;;40.25;20.33;;;10.30;99.90;;;;;;5117112;28;20044;-67
2021/12/15 07:08:31;;;;;;;40.13;21.05;;;10.30;99.90;;;;;;5116486;28;20184;-69
2021/12/15 07:10:59;;;;;;;38.80;20.80;;;10.30;99.90;;;;;;5116077;28;20063;-68
2021/12/15 07:13:26;;;;;;;43.15;21.58;;;10.00;99.90;;;;;;5116421;28;20104;-68
2021/12/15 07:15:59;;;;;;;36.53;20.10;;;10.30;99.90;;;;;;5116658;28;20043;-68
2021/12/15 07:18:37;;;;;;;36.72;20.40;;;10.30;99.90;;;;;;5082183;28;20043;-68
2021/12/15 07:21:10;;;;;;;38.20;19.88;;;10.30;99.90;;;;;;5116450;28;20054;-68
2021/12/15 07:23:36;;;;;;;38.83;20.13;;;10.30;99.90;;;;;;5099249;28;20086;-69
2021/12/15 07:26:02;;;;;;;40.42;20.17;;;10.20;99.90;;;;;;5116167;28;20044;-69
2021/12/15 07:28:28;;;;;;;39.80;19.98;;;10.30;99.90;;;;;;5098860;28;20042;-69
2021/12/15 07:30:54;;;;;;;42.30;21.02;;;10.30;99.90;;;;;;5116176;28;20055;-69
2021/12/15 07:33:20;;;;;;;38.70;20.40;;;10.30;99.90;;;;;;5115807;28;20522;-69
2021/12/15 07:35:46;;;;;;;39.13;19.63;;;10.30;99.90;;;;;;5098079;28;20058;-69
2021/12/15 07:38:12;;;;;;;38.20;19.63;;;10.20;99.90;;;;;;5115619;28;20039;-69
2021/12/15 07:40:40;;;;;;;40.22;20.30;;;10.30;99.90;;;;;;5116789;28;20043;-69
2021/12/15 07:43:10;;;;;;;37.05;19.60;;;10.30;99.90;;;;;;5116016;28;20086;-69
2021/12/15 07:45:50;;;;;;;35.88;20.13;;;10.30;99.90;;;;;;5115628;28;20471;-68
2021/12/15 07:48:17;;;;;;;38.30;20.58;;;10.30;99.90;;;;;;5098178;28;20251;-68
2021/12/15 07:50:45;;;;;;;35.83;18.90;;;10.30;99.90;;;;;;5115744;28;20100;-69
2021/12/15 07:53:12;;;;;;;38.45;19.58;;;10.30;99.90;;;;;;5116556;28;20048;-69
2021/12/15 07:55:39;;;;;;;37.42;19.17;;;10.30;99.90;;;;;;5097565;28;20100;-68
2021/12/15 07:58:07;;;;;;;36.90;19.38;;;10.20;99.90;;;;;;5115231;28;20502;-69
2021/12/15 08:00:33;;;;;;;37.20;19.15;;;10.30;99.90;;;;;;5115508;28;20125;-69
2021/12/15 08:02:59;;;;;;;35.67;20.20;;;10.30;99.90;;;;;;5097534;28;20054;-69
2021/12/15 08:05:27;;;;;;;43.35;19.52;;;10.30;99.90;;;;;;5115428;28;20048;-69
2021/12/15 08:07:52;;;;;;;33.72;19.05;;;10.30;99.90;;;;;;5097468;28;20470;-69
2021/12/15 08:10:19;;;;;;;38.63;19.52;;;10.20;99.90;;;;;;5115139;28;20083;-69
2021/12/15 08:12:47;;;;;;;34.92;18.67;;;10.30;99.90;;;;;;5115293;28;20063;-69
2021/12/15 08:15:14;;;;;;;34.28;18.90;;;10.30;99.90;;;;;;5115814;28;20051;-70
2021/12/15 08:17:42;;;;;;;36.90;19.13;;;10.30;99.90;;;;;;5115152;28;20144;-69
2021/12/15 08:20:11;;;;;;;40.03;19.45;;;10.30;99.90;;;;;;5115128;28;20054;-69
2021/12/15 08:22:38;;;;;;;33.88;17.70;;;10.30;99.90;;;;;;5115372;28;20047;-68
2021/12/15 08:25:07;;;;;;;36.55;19.50;;;10.30;99.90;;;;;;5115038;28;20043;-69
2021/12/15 08:27:33;;;;;;;33.72;18.02;;;10.30;99.90;;;;;;5097235;28;20502;-69
2021/12/15 08:29:59;;;;;;;34.92;17.85;;;10.30;99.90;;;;;;5096293;28;20047;-69
2021/12/15 08:32:24;;;;;;;36.08;18.17;;;10.30;99.90;;;;;;5114980;28;20047;-69
2021/12/15 08:34:50;;;;;;;31.33;16.50;;;10.30;99.90;;;;;;5114959;28;20419;-69
2021/12/15 08:37:16;;;;;;;32.47;17.23;;;10.30;99.90;;;;;;5114958;28;20095;-69
2021/12/15 08:39:42;;;;;;;31.17;16.48;;;10.50;99.90;;;;;;5114579;28;20047;-68
2021/12/15 08:42:09;;;;;;;28.92;15.60;;;10.30;99.90;;;;;;5114923;28;20048;-68
2021/12/15 08:44:36;;;;;;;27.25;13.98;;;10.30;99.90;;;;;;5114837;28;20040;-69
2021/12/15 08:47:02;;;;;;;30.40;15.75;;;10.40;99.90;;;;;;5096855;28;20043;-68
2021/12/15 08:49:28;;;;;;;26.27;14.48;;;10.30;99.90;;;;;;5115629;28;20043;-69
2021/12/15 08:51:54;;;;;;;31.77;15.70;;;10.40;99.90;;;;;;5096571;28;20039;-67
2021/12/15 08:54:22;;;;;;;27.55;14.63;;;10.40;99.90;;;;;;5096756;28;20044;-68
2021/12/15 08:56:48;;;;;;;24.50;13.32;;;10.40;99.90;;;;;;5114841;28;20066;-68
2021/12/15 08:59:14;;;;;;;27.98;13.52;;;10.40;99.90;;;;;;5115359;28;20475;-67
2021/12/15 09:01:42;;;;;;;28.73;14.63;;;10.40;99.90;;;;;;5097445;28;20098;-67
2021/12/15 09:04:08;;;;;;;24.95;14.32;;;10.40;99.90;;;;;;5114555;28;20143;-67
2021/12/15 09:06:35;;;;;;;28.63;14.82;;;10.40;99.90;;;;;;5114515;28;20126;-69
2021/12/15 09:09:03;;;;;;;28.70;15.57;;;10.40;99.90;;;;;;5096572;28;20055;-68
2021/12/15 09:11:28;;;;;;;25.30;13.82;;;10.40;99.90;;;;;;5114143;28;20058;-69
2021/12/15 09:13:57;;;;;;;25.20;14.02;;;10.40;99.90;;;;;;5115253;28;20130;-66
2021/12/15 09:16:24;;;;;;;28.17;14.45;;;10.50;99.90;;;;;;5114370;28;20430;-67
2021/12/15 09:18:50;;;;;;;25.77;12.88;;;10.50;99.90;;;;;;5114975;28;20035;-69
2021/12/15 09:21:21;;;;;;;28.55;13.95;;;10.50;99.90;;;;;;5114237;28;20047;-70
2021/12/15 09:23:47;;;;;;;25.98;14.23;;;10.50;99.90;;;;;;5114376;28;20093;-69
2021/12/15 09:26:13;;;;;;;26.30;12.88;;;10.50;99.90;;;;;;5096249;28;20051;-69
2021/12/15 09:28:39;;;;;;;26.13;14.02;;;10.50;99.90;;;;;;5114152;28;20103;-69
2021/12/15 09:31:07;;;;;;;23.50;12.30;;;10.60;99.90;;;;;;5114228;28;20047;-69
2021/12/15 09:33:34;;;;;;;25.90;13.80;;;10.50;99.90;;;;;;5113806;28;20487;-69
2021/12/15 09:36:02;;;;;;;26.15;15.02;;;10.50;99.90;;;;;;5114104;28;20048;-69
2021/12/15 09:38:29;;;;;;;27.95;12.93;;;10.50;99.90;;;;;;5114273;28;20094;-69
2021/12/15 09:40:59;;;;;;;22.30;12.75;;;10.50;99.90;;;;;;5096108;28;20395;-69
2021/12/15 09:43:27;;;;;;;28.58;14.32;;;10.50;99.90;;;;;;5117746;28;20044;-69
2021/12/15 09:46:02;;;;;;;25.20;12.98;;;10.60;99.90;;;;;;5119140;28;20047;-69
2021/12/15 10:04:44;;;;;;;22.73;13.15;;;10.70;99.90;;;;;;5118024;28;20059;-70
2021/12/15 10:18:07;;;;;;;27.17;12.57;;;10.60;99.90;;;;;;5117650;28;20437;-70
2021/12/15 10:20:37;;;;;;;18.50;11.50;;;10.60;99.90;;;;;;5117676;28;20048;-70
2021/12/15 10:23:05;;;;;;;20.85;12.23;;;10.60;99.90;;;;;;5099347;28;20047;-70
2021/12/15 10:25:44;;;;;;;24.33;12.43;;;10.70;99.90;;;;;;5118129;28;20048;-69
2021/12/15 10:28:23;;;;;;;20.60;11.15;;;10.60;99.90;;;;;;5117862;28;20044;-70
2021/12/15 10:31:11;;;;;;;18.65;11.02;;;10.60;99.90;;;;;;5118300;28;20430;-69
2021/12/15 10:33:48;;;;;;;21.75;10.88;;;10.50;99.90;;;;;;5117208;28;20505;-69
2021/12/15 10:36:32;;;;;;;19.25;10.50;;;10.60;99.90;;;;;;5118016;28;20130;-69
2021/12/15 10:39:06;;;;;;;16.40;9.70;;;10.60;99.90;;;;;;5117318;28;20040;-70
2021/12/15 10:41:43;;;;;;;19.92;10.35;;;10.60;99.90;;;;;;5117856;28;20092;-69
2021/12/15 10:44:21;;;;;;;18.75;10.57;;;10.60;99.90;;;;;;5117735;28;20096;-70
2021/12/15 10:47:03;;;;;;;17.42;9.43;;;10.60;99.90;;;;;;5116963;28;20507;-70
2021/12/15 10:49:32;;;;;;;18.08;9.57;;;10.70;99.90;;;;;;5100019;28;20051;-70
2021/12/15 10:52:10;;;;;;;16.95;8.50;;;10.60;99.90;;;;;;5117055;28;20047;-70
2021/12/15 10:54:37;;;;;;;16.90;9.65;;;10.70;99.90;;;;;;5116754;28;20036;-70
2021/12/15 10:57:08;;;;;;;18.58;9.50;;;10.70;99.90;;;;;;5116875;28;20104;-69
2021/12/15 10:59:54;;;;;;;16.67;8.60;;;10.70;99.90;;;;;;5113672;28;20039;-69
2021/12/15 11:02:27;;;;;;;14.00;8.27;;;10.70;99.90;;;;;;5113612;28;20045;-69
2021/12/15 11:05:22;;;;;;;14.30;7.97;;;10.70;99.90;;;;;;5114174;28;20070;-69
2021/12/15 11:07:54;;;;;;;14.20;7.70;;;10.70;99.90;;;;;;5114330;28;20203;-69
2021/12/15 11:10:26;;;;;;;13.55;7.63;;;10.70;99.90;;;;;;5113078;28;20058;-68
2021/12/15 11:13:07;;;;;;;14.50;7.03;;;10.70;99.90;;;;;;5112346;28;20055;-68
2021/12/15 11:15:48;;;;;;;13.75;7.15;;;10.70;99.90;;;;;;5094244;28;20383;-69
2021/12/15 11:18:19;;;;;;;12.65;7.05;;;10.70;99.90;;;;;;5096651;28;20040;-69
2021/12/15 11:20:59;;;;;;;13.32;7.63;;;10.70;99.90;;;;;;5113727;28;20035;-68
2021/12/15 11:23:28;;;;;;;15.57;7.57;;;10.70;99.90;;;;;;5113095;28;20093;-69
2021/12/15 11:26:00;;;;;;;12.18;8.30;;;10.80;99.90;;;;;;5113884;28;20062;-68
2021/12/15 11:28:29;;;;;;;;;;;10.80;99.90;;;;;;5113449;28;20051;-68
2021/12/15 11:31:00;;;;;;;14.45;8.20;;;10.80;99.90;;;;;;5113177;28;19963;-68
2021/12/15 11:33:26;;;;;;;15.27;8.35;;;10.80;99.90;;;;;;5113004;28;20046;-69
2021/12/15 11:36:08;;;;;;;13.55;7.60;;;10.80;99.90;;;;;;5113222;28;20043;-69
2021/12/15 11:38:38;;;;;;;16.95;8.52;;;10.80;99.90;;;;;;5112439;28;20046;-69
2021/12/15 11:41:10;;;;;;;15.88;8.48;;;10.80;99.90;;;;;;5112721;28;20051;-68
2021/12/15 11:43:52;;;;;;;17.65;8.77;;;10.90;99.90;;;;;;5093886;28;20500;-68
2021/12/15 11:46:29;;;;;;;16.65;8.45;;;10.30;99.90;;;;;;5111936;28;20177;-69
2021/12/15 11:49:04;;;;;;;14.30;8.50;;;10.90;99.90;;;;;;5076665;28;20072;-68
2021/12/15 11:51:46;;;;;;;13.48;8.23;;;10.90;99.90;;;;;;5111948;28;20344;-69
2021/12/15 11:54:25;;;;;;;13.25;7.25;;;10.90;99.90;;;;;;5112846;28;20337;-68
2021/12/15 11:57:06;;;;;;;13.93;7.18;;;10.90;99.90;;;;;;5093098;28;20488;-69
2021/12/15 11:59:43;;;;;;;11.65;5.95;;;10.90;99.90;;;;;;5111279;28;20066;-68
2021/12/15 12:02:33;;;;;;;10.15;5.93;;;10.90;99.90;;;;;;5112889;28;20074;-68
2021/12/15 12:05:10;;;;;;;9.90;5.57;;;10.90;99.90;;;;;;5093820;28;20051;-68
2021/12/15 12:07:37;;;;;;;9.63;5.35;;;11.00;99.90;;;;;;5112228;28;20043;-70
2021/12/15 12:10:31;;;;;;;8.10;4.88;;;11.00;99.90;;;;;;5093291;28;20058;-69
2021/12/15 12:13:10;;;;;;;10.45;4.90;;;11.00;99.90;;;;;;5111728;28;20051;-70
2021/12/15 12:15:40;;;;;;;10.98;4.53;;;11.00;99.90;;;;;;5111286;28;20063;-70
2021/12/15 12:18:09;;;;;;;10.25;4.75;;;11.00;99.90;;;;;;5093297;28;20051;-71
2021/12/15 12:20:43;;;;;;;7.50;3.80;;;11.00;99.90;;;;;;5110815;28;20498;-69
2021/12/15 12:23:11;;;;;;;7.18;3.75;;;11.00;99.90;;;;;;5111265;28;20048;-68
2021/12/15 12:25:40;;;;;;;9.43;3.60;;;11.00;99.90;;;;;;5111403;28;20050;-69
2021/12/15 12:28:10;;;;;;;6.55;3.75;;;11.00;99.90;;;;;;5112045;28;20465;-68
2021/12/15 12:30:42;;;;;;;6.07;3.47;;;11.00;99.90;;;;;;5111385;28;20062;-68
2021/12/15 12:33:10;;;;;;;8.55;4.35;;;11.00;99.90;;;;;;5111435;28;20043;-68
2021/12/15 12:35:46;;;;;;;7.57;3.30;;;11.00;99.90;;;;;;5111976;28;20497;-69
2021/12/15 12:38:16;;;;;;;7.53;3.97;;;11.00;99.90;;;;;;5111503;28;20046;-69
2021/12/15 12:41:05;;;;;;;9.20;3.95;;;11.00;99.90;;;;;;5111732;28;20398;-69
2021/12/15 12:43:36;;;;;;;8.82;3.67;;;11.00;99.90;;;;;;5111919;28;20371;-68
2021/12/15 12:46:27;;;;;;;10.00;3.88;;;11.00;99.90;;;;;;5110539;28;20050;-69
2021/12/15 12:49:35;;;;;;;5.68;3.33;;;10.90;99.90;;;;;;5110534;28;20040;-69
2021/12/15 13:00:43;;;;;;;7.18;3.13;;;10.90;99.90;;;;;;5092949;28;20388;-69
2021/12/15 13:03:22;;;;;;;12.77;3.72;;;10.90;99.90;;;;;;5093151;28;20252;-69
2021/12/15 13:05:50;;;;;;;10.30;3.15;;;10.90;99.90;;;;;;5110052;28;20081;-69
2021/12/15 13:08:40;;;;;;;6.55;3.30;;;10.80;99.90;;;;;;5110553;28;20123;-70
2021/12/15 13:11:22;;;;;;;6.63;3.15;;;10.80;99.90;;;;;;5110034;28;20039;-69
2021/12/15 13:14:10;;;;;;;8.40;2.70;;;10.80;99.90;;;;;;5111284;28;20059;-69
2021/12/15 13:16:50;;;;;;;7.32;2.85;;;10.80;99.90;;;;;;5109738;28;20059;-70
2021/12/15 13:19:24;;;;;;;7.93;2.63;;;10.70;99.90;;;;;;5092173;28;20433;-70
2021/12/15 13:30:34;;;;;;;6.38;2.55;;;10.80;99.90;;;;;;5110773;28;20050;-69
2021/12/15 13:33:12;;;;;;;5.25;2.50;;;10.90;99.90;;;;;;5109631;28;20464;-70
2021/12/15 13:35:51;;;;;;;5.82;2.33;;;10.80;99.90;;;;;;5109641;28;20044;-70
2021/12/15 13:38:34;;;;;;;5.13;2.00;;;10.70;99.90;;;;;;5109949;28;20115;-70
2021/12/15 13:41:07;;;;;;;4.35;2.00;;;10.70;99.90;;;;;;5111658;28;20112;-69
2021/12/15 13:43:39;;;;;;;7.38;2.72;;;10.70;99.90;;;;;;5114192;28;20112;-70
2021/12/15 13:46:09;;;;;;;8.07;1.80;;;10.60;99.90;;;;;;5114383;28;20519;-70
2021/12/15 13:48:56;;;;;;;3.65;1.65;;;10.60;99.90;;;;;;5096437;28;20035;-69
2021/12/15 13:51:50;;;;;;;2.60;1.65;;;10.80;99.90;;;;;;5114222;28;20478;-69
2021/12/15 13:54:21;;;;;;;;;;;10.50;99.90;;;;;;5114400;28;20047;-69
2021/12/15 13:56:53;;;;;;;3.05;1.30;;;10.50;99.90;;;;;;5113897;28;19915;-70
2021/12/15 13:59:34;;;;;;;3.97;1.57;;;10.60;99.90;;;;;;5114222;28;20089;-70
2021/12/15 14:02:18;;;;;;;4.30;1.27;;;10.40;99.90;;;;;;5114567;28;20320;-70
2021/12/15 14:04:58;;;;;;;3.40;0.93;;;10.30;99.90;;;;;;5113615;28;20495;-69
2021/12/15 14:07:30;;;;;;;1.95;1.10;;;10.30;99.90;;;;;;5113879;28;20075;-70
2021/12/15 14:10:12;;;;;;;4.45;1.30;;;10.30;99.90;;;;;;5095245;28;20118;-69
2021/12/15 14:12:47;;;;;;;3.20;1.10;;;10.20;99.90;;;;;;5113911;28;20052;-68
2021/12/15 14:15:25;;;;;;;2.72;1.10;;;10.20;99.90;;;;;;5113842;28;20054;-68
2021/12/15 14:18:08;;;;;;;3.88;1.00;;;10.20;99.90;;;;;;5113814;28;20499;-69